Saltar para o conteúdo principal

São Miguel / Lagoa das Furnas (DROTRH)

ID 11217255 · 37.7619, -25.3291 mapa

Última leitura · 2026-05-09 18:00 (Europe/Lisbon)

Temperatura
12.2 °C
Humidade
85 %
Pressão
Precipitação
0.7 mm
Radiação
1,508 W/m²
Velocidade do vento
24.8 km/h
Direcção do vento
SE · Sudeste

Histórico de 24 horas

Hora (Europe/Lisbon) Temperatura Humidade Pressão Chuva Vento Direcção
2026-05-09 18:00 12.2 °C 85 % 0.7 mm 24.8 km/h SE
2026-05-09 17:00 12.1 °C 88 % 1.9 mm 10.8 km/h S
2026-05-09 16:00 11.2 °C 88 % 1.4 mm 10.4 km/h S
2026-05-09 15:00 11.0 °C 87 % 0.7 mm 7.2 km/h SW
2026-05-09 14:00 11.3 °C 77 % 2.2 mm 9.0 km/h SE
2026-05-09 13:00 12.2 °C 66 % 0.0 mm 11.9 km/h SE
2026-05-09 12:00 12.0 °C 62 % 0.0 mm 12.6 km/h SE
2026-05-09 11:00 11.2 °C 69 % 0.0 mm 8.6 km/h SW
2026-05-09 10:00 10.6 °C 72 % 0.0 mm 12.6 km/h E
2026-05-09 09:00 10.6 °C 71 % 0.0 mm 9.4 km/h S
2026-05-09 08:00 10.6 °C 73 % 0.0 mm 17.6 km/h E
2026-05-09 07:00 10.2 °C 76 % 0.0 mm 10.1 km/h SE
2026-05-09 06:00 10.4 °C 77 % 0.6 mm 15.1 km/h S
2026-05-09 05:00 10.8 °C 75 % 0.0 mm 14.4 km/h SE
2026-05-09 04:00 11.1 °C 73 % 0.2 mm 8.6 km/h E
2026-05-09 03:00 11.5 °C 71 % 0.0 mm 16.2 km/h S
2026-05-09 02:00 11.5 °C 82 % 0.1 mm 12.6 km/h S
2026-05-09 01:00 11.7 °C 82 % 0.0 mm 23.0 km/h E
2026-05-09 00:00 12.0 °C 82 % 0.0 mm 16.9 km/h SE
2026-05-08 23:00 12.0 °C 89 % 1.1 mm 18.0 km/h S
2026-05-08 22:00 12.3 °C 85 % 0.1 mm 7.9 km/h S
2026-05-08 21:00 12.7 °C 85 % 0.0 mm 8.6 km/h S
2026-05-08 20:00 13.2 °C 80 % 0.3 mm 9.7 km/h S
2026-05-08 19:00 13.5 °C 79 % 0.0 mm 7.9 km/h SW